sensor_id;sensor_type;location;lat;lon;timestamp;pressure;altitude;pressure_sealevel;temperature;humidity
22605;BME280;11469;49.024;8.246;2023-05-08T00:00:19;100670.00;;;15.11;100.00
22605;BME280;11469;49.024;8.246;2023-05-08T00:02:44;100668.81;;;15.15;100.00
22605;BME280;11469;49.024;8.246;2023-05-08T00:05:10;100675.22;;;15.12;100.00
22605;BME280;11469;49.024;8.246;2023-05-08T00:07:36;100677.81;;;15.28;100.00
22605;BME280;11469;49.024;8.246;2023-05-08T00:10:06;100678.56;;;15.21;100.00
22605;BME280;11469;49.024;8.246;2023-05-08T00:12:32;100679.72;;;15.17;100.00
22605;BME280;11469;49.024;8.246;2023-05-08T00:14:57;100685.34;;;15.17;100.00
22605;BME280;11469;49.024;8.246;2023-05-08T00:17:23;100684.13;;;15.14;100.00
22605;BME280;11469;49.024;8.246;2023-05-08T00:19:48;100681.34;;;15.18;100.00
22605;BME280;11469;49.024;8.246;2023-05-08T00:22:13;100685.81;;;15.22;100.00
22605;BME280;11469;49.024;8.246;2023-05-08T00:24:39;100683.03;;;15.26;100.00
22605;BME280;11469;49.024;8.246;2023-05-08T00:27:04;100681.78;;;15.23;100.00
22605;BME280;11469;49.024;8.246;2023-05-08T00:29:30;100685.41;;;15.20;100.00
22605;BME280;11469;49.024;8.246;2023-05-08T00:31:55;100688.22;;;15.20;100.00
22605;BME280;11469;49.024;8.246;2023-05-08T00:34:21;100691.09;;;15.24;100.00
22605;BME280;11469;49.024;8.246;2023-05-08T00:36:46;100681.78;;;15.23;100.00
22605;BME280;11469;49.024;8.246;2023-05-08T00:39:11;100690.22;;;15.20;100.00
22605;BME280;11469;49.024;8.246;2023-05-08T00:41:37;100680.59;;;15.24;100.00
22605;BME280;11469;49.024;8.246;2023-05-08T00:44:03;100681.84;;;15.27;100.00
22605;BME280;11469;49.024;8.246;2023-05-08T00:46:29;100683.16;;;15.37;100.00
22605;BME280;11469;49.024;8.246;2023-05-08T00:48:55;100687.44;;;15.57;100.00
22605;BME280;11469;49.024;8.246;2023-05-08T00:51:21;100685.84;;;15.59;100.00
22605;BME280;11469;49.024;8.246;2023-05-08T00:53:46;100679.59;;;15.43;100.00
22605;BME280;11469;49.024;8.246;2023-05-08T00:56:13;100677.19;;;15.45;100.00
22605;BME280;11469;49.024;8.246;2023-05-08T00:58:40;100677.91;;;15.35;100.00
22605;BME280;11469;49.024;8.246;2023-05-08T01:01:06;100674.25;;;15.35;100.00
22605;BME280;11469;49.024;8.246;2023-05-08T01:03:34;100682.00;;;15.41;100.00
22605;BME280;11469;49.024;8.246;2023-05-08T01:06:01;100679.09;;;15.34;100.00
22605;BME280;11469;49.024;8.246;2023-05-08T01:08:26;100695.97;;;15.27;100.00
22605;BME280;11469;49.024;8.246;2023-05-08T01:16:14;100681.53;;;15.36;100.00
22605;BME280;11469;49.024;8.246;2023-05-08T01:18:53;100680.69;;;15.32;100.00
22605;BME280;11469;49.024;8.246;2023-05-08T01:32:41;100693.41;;;15.15;100.00
22605;BME280;11469;49.024;8.246;2023-05-08T01:35:23;100686.59;;;15.19;100.00
22605;BME280;11469;49.024;8.246;2023-05-08T01:38:05;100685.88;;;15.26;100.00
22605;BME280;11469;49.024;8.246;2023-05-08T01:43:14;100685.25;;;15.43;100.00
22605;BME280;11469;49.024;8.246;2023-05-08T01:45:45;100681.56;;;15.39;100.00
22605;BME280;11469;49.024;8.246;2023-05-08T01:48:18;100690.47;;;15.41;100.00
22605;BME280;11469;49.024;8.246;2023-05-08T01:50:46;100683.88;;;15.30;100.00
22605;BME280;11469;49.024;8.246;2023-05-08T01:53:20;100685.50;;;15.31;100.00
22605;BME280;11469;49.024;8.246;2023-05-08T01:55:47;100689.41;;;15.19;100.00
22605;BME280;11469;49.024;8.246;2023-05-08T01:58:15;100701.56;;;15.23;100.00
22605;BME280;11469;49.024;8.246;2023-05-08T02:00:41;100702.41;;;15.27;100.00
22605;BME280;11469;49.024;8.246;2023-05-08T02:03:09;100697.84;;;15.16;100.00
22605;BME280;11469;49.024;8.246;2023-05-08T02:05:37;100700.22;;;15.10;100.00
22605;BME280;11469;49.024;8.246;2023-05-08T02:08:03;100706.25;;;15.09;100.00
22605;BME280;11469;49.024;8.246;2023-05-08T02:10:29;100709.09;;;15.12;100.00
22605;BME280;11469;49.024;8.246;2023-05-08T02:12:55;100707.13;;;15.16;100.00
22605;BME280;11469;49.024;8.246;2023-05-08T02:15:24;100706.28;;;15.12;100.00
22605;BME280;11469;49.024;8.246;2023-05-08T02:17:53;100711.13;;;15.12;100.00
22605;BME280;11469;49.024;8.246;2023-05-08T02:20:20;100707.50;;;15.11;100.00
22605;BME280;11469;49.024;8.246;2023-05-08T02:22:49;100709.50;;;15.11;100.00
22605;BME280;11469;49.024;8.246;2023-05-08T02:25:16;100705.13;;;15.17;100.00
22605;BME280;11469;49.024;8.246;2023-05-08T02:27:44;100703.06;;;15.14;100.00
22605;BME280;11469;49.024;8.246;2023-05-08T02:30:15;100710.81;;;15.20;100.00
22605;BME280;11469;49.024;8.246;2023-05-08T02:32:45;100716.41;;;15.17;100.00
22605;BME280;11469;49.024;8.246;2023-05-08T02:35:14;100713.19;;;15.18;100.00
22605;BME280;11469;49.024;8.246;2023-05-08T02:37:42;100714.44;;;15.21;100.00
22605;BME280;11469;49.024;8.246;2023-05-08T02:40:09;100718.59;;;15.31;100.00
22605;BME280;11469;49.024;8.246;2023-05-08T02:42:36;100718.19;;;15.32;100.00
22605;BME280;11469;49.024;8.246;2023-05-08T02:45:02;100715.50;;;15.43;100.00
22605;BME280;11469;49.024;8.246;2023-05-08T02:47:36;100723.59;;;15.44;100.00
22605;BME280;11469;49.024;8.246;2023-05-08T02:50:19;100717.09;;;15.40;100.00
22605;BME280;11469;49.024;8.246;2023-05-08T02:52:53;100721.06;;;15.36;100.00
22605;BME280;11469;49.024;8.246;2023-05-08T02:56:05;100714.56;;;15.32;100.00
22605;BME280;11469;49.024;8.246;2023-05-08T02:58:35;100719.41;;;15.31;100.00
22605;BME280;11469;49.024;8.246;2023-05-08T03:03:41;100714.53;;;15.28;100.00
22605;BME280;11469;49.024;8.246;2023-05-08T03:06:12;100718.59;;;15.31;100.00
22605;BME280;11469;49.024;8.246;2023-05-08T03:08:38;100716.63;;;15.35;100.00
22605;BME280;11469;49.024;8.246;2023-05-08T03:11:16;100708.91;;;15.32;100.00
22605;BME280;11469;49.024;8.246;2023-05-08T03:13:45;100712.56;;;15.32;100.00
22605;BME280;11469;49.024;8.246;2023-05-08T03:16:21;100706.47;;;15.30;100.00
22605;BME280;11469;49.024;8.246;2023-05-08T03:18:58;100704.84;;;15.29;100.00
22605;BME280;11469;49.024;8.246;2023-05-08T03:21:27;100704.81;;;15.25;100.00
22605;BME280;11469;49.024;8.246;2023-05-08T03:23:53;100702.47;;;15.31;100.00
22605;BME280;11469;49.024;8.246;2023-05-08T03:26:20;100701.22;;;15.28;100.00
22605;BME280;11469;49.024;8.246;2023-05-08T03:28:50;100700.44;;;15.32;100.00
22605;BME280;11469;49.024;8.246;2023-05-08T03:31:17;100700.41;;;15.28;100.00
22605;BME280;11469;49.024;8.246;2023-05-08T03:33:46;100708.84;;;15.24;100.00
22605;BME280;11469;49.024;8.246;2023-05-08T03:36:13;100714.09;;;15.26;100.00
22605;BME280;11469;49.024;8.246;2023-05-08T03:38:40;100728.59;;;15.24;100.00
22605;BME280;11469;49.024;8.246;2023-05-08T03:41:06;100713.25;;;15.22;100.00
22605;BME280;11469;49.024;8.246;2023-05-08T03:43:32;100716.88;;;15.22;100.00
22605;BME280;11469;49.024;8.246;2023-05-08T03:45:58;100725.72;;;15.21;100.00
22605;BME280;11469;49.024;8.246;2023-05-08T03:48:25;100719.44;;;15.35;100.00
22605;BME280;11469;49.024;8.246;2023-05-08T03:50:52;100715.34;;;15.28;100.00
22605;BME280;11469;49.024;8.246;2023-05-08T03:53:17;100726.59;;;15.25;100.00
22605;BME280;11469;49.024;8.246;2023-05-08T03:55:43;100724.50;;;15.18;100.00
22605;BME280;11469;49.024;8.246;2023-05-08T03:58:27;100726.94;;;15.20;100.00
22605;BME280;11469;49.024;8.246;2023-05-08T04:01:11;100722.53;;;15.22;100.00
22605;BME280;11469;49.024;8.246;2023-05-08T04:06:32;100723.59;;;15.44;100.00
22605;BME280;11469;49.024;8.246;2023-05-08T04:14:26;100729.06;;;15.30;100.00
22605;BME280;11469;49.024;8.246;2023-05-08T04:17:00;100730.81;;;15.42;100.00
22605;BME280;11469;49.024;8.246;2023-05-08T04:19:29;100734.81;;;15.37;100.00
22605;BME280;11469;49.024;8.246;2023-05-08T04:22:04;100733.84;;;15.26;100.00
22605;BME280;11469;49.024;8.246;2023-05-08T04:24:30;100729.59;;;15.39;100.00
22605;BME280;11469;49.024;8.246;2023-05-08T04:26:58;100728.25;;;15.30;100.00
22605;BME280;11469;49.024;8.246;2023-05-08T04:29:24;100729.06;;;15.30;100.00
22605;BME280;11469;49.024;8.246;2023-05-08T04:31:50;100732.66;;;15.27;100.00
22605;BME280;11469;49.024;8.246;2023-05-08T04:34:16;100731.41;;;15.24;100.00
22605;BME280;11469;49.024;8.246;2023-05-08T04:36:42;100731.41;;;15.24;100.00
22605;BME280;11469;49.024;8.246;2023-05-08T04:39:08;100729.38;;;15.21;100.00
22605;BME280;11469;49.024;8.246;2023-05-08T04:41:33;100734.25;;;15.24;100.00
22605;BME280;11469;49.024;8.246;2023-05-08T04:44:00;100733.84;;;15.26;100.00
22605;BME280;11469;49.024;8.246;2023-05-08T04:46:25;100744.81;;;15.31;100.00
22605;BME280;11469;49.024;8.246;2023-05-08T04:48:50;100747.16;;;15.25;100.00
22605;BME280;11469;49.024;8.246;2023-05-08T04:51:16;100737.97;;;15.32;100.00
22605;BME280;11469;49.024;8.246;2023-05-08T04:53:41;100752.84;;;15.29;100.00
22605;BME280;11469;49.024;8.246;2023-05-08T04:56:07;100756.09;;;15.31;100.00
22605;BME280;11469;49.024;8.246;2023-05-08T04:58:32;100754.47;;;15.30;100.00
22605;BME280;11469;49.024;8.246;2023-05-08T05:01:01;100748.44;;;15.32;100.00
22605;BME280;11469;49.024;8.246;2023-05-08T05:03:27;100749.25;;;15.32;100.00
22605;BME280;11469;49.024;8.246;2023-05-08T05:05:57;100756.53;;;15.33;100.00
22605;BME280;11469;49.024;8.246;2023-05-08T05:08:23;100756.53;;;15.33;100.00
22605;BME280;11469;49.024;8.246;2023-05-08T05:10:48;100762.19;;;15.33;100.00
22605;BME280;11469;49.024;8.246;2023-05-08T05:13:13;100771.91;;;15.36;100.00
22605;BME280;11469;49.024;8.246;2023-05-08T05:15:41;100758.56;;;15.33;100.00
22605;BME280;11469;49.024;8.246;2023-05-08T05:18:06;100767.06;;;15.36;100.00
22605;BME280;11469;49.024;8.246;2023-05-08T05:20:32;100766.28;;;15.39;100.00
22605;BME280;11469;49.024;8.246;2023-05-08T05:22:57;100763.13;;;15.44;100.00
22605;BME280;11469;49.024;8.246;2023-05-08T05:25:23;100771.19;;;15.42;100.00
22605;BME280;11469;49.024;8.246;2023-05-08T05:27:48;100770.34;;;15.42;100.00
22605;BME280;11469;49.024;8.246;2023-05-08T05:30:14;100776.47;;;15.47;100.00
22605;BME280;11469;49.024;8.246;2023-05-08T05:32:39;100773.22;;;15.45;100.00
22605;BME280;11469;49.024;8.246;2023-05-08T05:35:05;100780.47;;;15.43;100.00
22605;BME280;11469;49.024;8.246;2023-05-08T05:37:30;100786.09;;;15.43;100.00
22605;BME280;11469;49.024;8.246;2023-05-08T05:39:56;100784.88;;;15.40;100.00
22605;BME280;11469;49.024;8.246;2023-05-08T05:42:21;100789.06;;;15.53;100.00
22605;BME280;11469;49.024;8.246;2023-05-08T05:44:47;100789.56;;;15.63;100.00
22605;BME280;11469;49.024;8.246;2023-05-08T05:47:12;100785.97;;;15.66;100.00
22605;BME280;11469;49.024;8.246;2023-05-08T05:49:38;100793.97;;;15.56;100.00
22605;BME280;11469;49.024;8.246;2023-05-08T05:52:07;100796.69;;;15.49;100.00
22605;BME280;11469;49.024;8.246;2023-05-08T05:54:32;100799.03;;;15.44;100.00
22605;BME280;11469;49.024;8.246;2023-05-08T05:56:57;100792.16;;;15.41;100.00
22605;BME280;11469;49.024;8.246;2023-05-08T05:59:23;100793.03;;;15.49;100.00
22605;BME280;11469;49.024;8.246;2023-05-08T06:01:48;100797.09;;;15.51;100.00
22605;BME280;11469;49.024;8.246;2023-05-08T06:04:14;100791.47;;;15.51;100.00
22605;BME280;11469;49.024;8.246;2023-05-08T06:06:40;100797.28;;;15.66;100.00
22605;BME280;11469;49.024;8.246;2023-05-08T06:09:05;100796.53;;;15.72;100.00
22605;BME280;11469;49.024;8.246;2023-05-08T06:11:31;100795.22;;;15.63;100.00
22605;BME280;11469;49.024;8.246;2023-05-08T06:13:56;100792.69;;;15.54;100.00
22605;BME280;11469;49.024;8.246;2023-05-08T06:16:22;100800.44;;;15.60;100.00
22605;BME280;11469;49.024;8.246;2023-05-08T06:18:49;100788.25;;;15.53;100.00
22605;BME280;11469;49.024;8.246;2023-05-08T06:21:14;100802.00;;;15.54;100.00
22605;BME280;11469;49.024;8.246;2023-05-08T06:23:40;100802.81;;;15.55;100.00
22605;BME280;11469;49.024;8.246;2023-05-08T06:26:07;100798.84;;;15.59;100.00
22605;BME280;11469;49.024;8.246;2023-05-08T06:28:32;100798.06;;;15.63;100.00
22605;BME280;11469;49.024;8.246;2023-05-08T06:30:58;100795.66;;;15.65;100.00
22605;BME280;11469;49.024;8.246;2023-05-08T06:33:23;100800.97;;;15.70;100.00
22605;BME280;11469;49.024;8.246;2023-05-08T06:35:48;100806.25;;;15.75;100.00
22605;BME280;11469;49.024;8.246;2023-05-08T06:38:14;100800.69;;;15.82;100.00
22605;BME280;11469;49.024;8.246;2023-05-08T06:40:44;100806.72;;;15.80;100.00
22605;BME280;11469;49.024;8.246;2023-05-08T06:43:10;100804.72;;;15.81;100.00
22605;BME280;11469;49.024;8.246;2023-05-08T06:45:35;100801.94;;;15.84;100.00
22605;BME280;11469;49.024;8.246;2023-05-08T06:48:01;100805.22;;;15.90;100.00
22605;BME280;11469;49.024;8.246;2023-05-08T06:50:26;100804.16;;;16.05;100.00
22605;BME280;11469;49.024;8.246;2023-05-08T06:52:52;100804.16;;;16.05;100.00
22605;BME280;11469;49.024;8.246;2023-05-08T06:55:17;100802.22;;;16.16;100.00
22605;BME280;11469;49.024;8.246;2023-05-08T06:57:43;100809.94;;;16.19;100.00
22605;BME280;11469;49.024;8.246;2023-05-08T07:00:08;100805.06;;;16.16;100.00
22605;BME280;11469;49.024;8.246;2023-05-08T07:02:34;100805.06;;;16.16;100.00
22605;BME280;11469;49.024;8.246;2023-05-08T07:04:59;100802.66;;;16.18;100.00
22605;BME280;11469;49.024;8.246;2023-05-08T07:07:25;100803.00;;;16.13;100.00
22605;BME280;11469;49.024;8.246;2023-05-08T07:09:50;100802.19;;;16.13;100.00
22605;BME280;11469;49.024;8.246;2023-05-08T07:12:16;100804.28;;;16.19;100.00
22605;BME280;11469;49.024;8.246;2023-05-08T07:14:42;100805.88;;;16.17;100.00
22605;BME280;11469;49.024;8.246;2023-05-08T07:17:07;100816.78;;;16.18;100.00
22605;BME280;11469;49.024;8.246;2023-05-08T07:19:37;100816.06;;;16.29;100.00
22605;BME280;11469;49.024;8.246;2023-05-08T07:22:03;100813.22;;;16.25;100.00
22605;BME280;11469;49.024;8.246;2023-05-08T07:24:29;100815.63;;;16.23;100.00
22605;BME280;11469;49.024;8.246;2023-05-08T07:26:54;100810.88;;;16.34;100.00
22605;BME280;11469;49.024;8.246;2023-05-08T07:29:20;100805.84;;;16.13;100.00
22605;BME280;11469;49.024;8.246;2023-05-08T07:31:45;100810.28;;;16.14;100.00
22605;BME280;11469;49.024;8.246;2023-05-08T07:34:12;100818.09;;;16.28;100.00
22605;BME280;11469;49.024;8.246;2023-05-08T07:36:38;100819.72;;;16.29;100.00
22605;BME280;11469;49.024;8.246;2023-05-08T07:39:04;100821.84;;;16.39;100.00
22605;BME280;11469;49.024;8.246;2023-05-08T07:41:29;100823.50;;;16.44;100.00
22605;BME280;11469;49.024;8.246;2023-05-08T07:43:55;100823.16;;;16.52;100.00
22605;BME280;11469;49.024;8.246;2023-05-08T07:46:20;100829.63;;;16.53;100.00
22605;BME280;11469;49.024;8.246;2023-05-08T07:48:46;100831.66;;;16.56;100.00
22605;BME280;11469;49.024;8.246;2023-05-08T07:51:12;100834.13;;;16.61;100.00
22605;BME280;11469;49.024;8.246;2023-05-08T07:53:38;100832.16;;;16.65;100.00
22605;BME280;11469;49.024;8.246;2023-05-08T07:56:03;100833.78;;;16.66;100.00
22605;BME280;11469;49.024;8.246;2023-05-08T07:58:29;100829.34;;;16.69;100.00
22605;BME280;11469;49.024;8.246;2023-05-08T08:00:55;100839.91;;;16.75;100.00
22605;BME280;11469;49.024;8.246;2023-05-08T08:03:20;100832.72;;;16.85;100.00
22605;BME280;11469;49.024;8.246;2023-05-08T08:05:46;100832.38;;;16.94;100.00
22605;BME280;11469;49.024;8.246;2023-05-08T08:08:11;100835.16;;;16.86;100.00
22605;BME280;11469;49.024;8.246;2023-05-08T08:10:36;100835.59;;;16.92;100.00
22605;BME280;11469;49.024;8.246;2023-05-08T08:13:02;100832.41;;;17.01;100.00
22605;BME280;11469;49.024;8.246;2023-05-08T08:15:27;100824.31;;;17.03;100.00
22605;BME280;11469;49.024;8.246;2023-05-08T08:17:53;100836.88;;;17.05;100.00
22605;BME280;11469;49.024;8.246;2023-05-08T08:20:19;100834.50;;;17.14;100.00
22605;BME280;11469;49.024;8.246;2023-05-08T08:22:44;100835.25;;;17.08;100.00
22605;BME280;11469;49.024;8.246;2023-05-08T08:25:10;100836.88;;;17.09;100.00
22605;BME280;11469;49.024;8.246;2023-05-08T08:27:35;100828.44;;;17.16;100.00
22605;BME280;11469;49.024;8.246;2023-05-08T08:30:00;100834.16;;;17.27;100.00
22605;BME280;11469;49.024;8.246;2023-05-08T08:32:26;100828.50;;;17.27;100.00
22605;BME280;11469;49.024;8.246;2023-05-08T08:34:51;100834.59;;;17.32;100.00
22605;BME280;11469;49.024;8.246;2023-05-08T08:37:17;100828.16;;;17.39;100.00
22605;BME280;11469;49.024;8.246;2023-05-08T08:39:42;100832.25;;;17.48;100.00
22605;BME280;11469;49.024;8.246;2023-05-08T08:42:08;100832.56;;;17.29;100.00
22605;BME280;11469;49.024;8.246;2023-05-08T08:44:33;100834.63;;;17.36;100.00
22605;BME280;11469;49.024;8.246;2023-05-08T08:46:59;100831.38;;;17.37;100.00
22605;BME280;11469;49.024;8.246;2023-05-08T08:49:34;100832.94;;;17.24;100.00
22605;BME280;11469;49.024;8.246;2023-05-08T08:52:14;100831.28;;;17.19;100.00
22605;BME280;11469;49.024;8.246;2023-05-08T08:54:45;100838.63;;;17.28;100.00
22605;BME280;11469;49.024;8.246;2023-05-08T08:57:11;100843.50;;;17.31;100.00
22605;BME280;11469;49.024;8.246;2023-05-08T08:59:37;100838.25;;;17.36;100.00
22605;BME280;11469;49.024;8.246;2023-05-08T09:02:11;100848.81;;;17.43;100.00
22605;BME280;11469;49.024;8.246;2023-05-08T09:04:37;100848.03;;;17.46;100.00
22605;BME280;11469;49.024;8.246;2023-05-08T09:07:04;100841.13;;;17.50;100.00
22605;BME280;11469;49.024;8.246;2023-05-08T09:09:31;100840.34;;;17.53;100.00
22605;BME280;11469;49.024;8.246;2023-05-08T09:12:00;100846.81;;;17.50;100.00
22605;BME280;11469;49.024;8.246;2023-05-08T09:14:25;100848.88;;;17.61;100.00
22605;BME280;11469;49.024;8.246;2023-05-08T09:16:52;100848.06;;;17.60;100.00
22605;BME280;11469;49.024;8.246;2023-05-08T09:19:18;100849.69;;;17.61;100.00
22605;BME280;11469;49.024;8.246;2023-05-08T09:21:44;100850.91;;;17.60;100.00
22605;BME280;11469;49.024;8.246;2023-05-08T09:24:09;100857.84;;;17.66;100.00
22605;BME280;11469;49.024;8.246;2023-05-08T09:26:37;100848.19;;;17.88;100.00
22605;BME280;11469;49.024;8.246;2023-05-08T09:29:21;100844.56;;;18.09;100.00
22605;BME280;11469;49.024;8.246;2023-05-08T09:31:49;100846.22;;;18.17;100.00
22605;BME280;11469;49.024;8.246;2023-05-08T09:34:28;100856.38;;;18.29;100.00
22605;BME280;11469;49.024;8.246;2023-05-08T09:36:55;100855.16;;;18.44;100.00
22605;BME280;11469;49.024;8.246;2023-05-08T09:39:34;100861.25;;;18.36;100.00
22605;BME280;11469;49.024;8.246;2023-05-08T09:42:03;100853.53;;;18.29;100.00
22605;BME280;11469;49.024;8.246;2023-05-08T09:44:52;100852.75;;;18.39;100.00
22605;BME280;11469;49.024;8.246;2023-05-08T09:47:26;100855.97;;;18.45;100.00
22605;BME280;11469;49.024;8.246;2023-05-08T09:52:29;100863.66;;;18.55;100.00
22605;BME280;11469;49.024;8.246;2023-05-08T09:54:59;100860.44;;;18.42;100.00
22605;BME280;11469;49.024;8.246;2023-05-08T09:57:26;100868.53;;;18.51;100.00
22605;BME280;11469;49.024;8.246;2023-05-08T10:02:31;100857.59;;;18.24;100.00
22605;BME280;11469;49.024;8.246;2023-05-08T10:04:57;100860.41;;;18.14;100.00
22605;BME280;11469;49.024;8.246;2023-05-08T10:07:33;100864.81;;;18.04;100.00
22605;BME280;11469;49.024;8.246;2023-05-08T10:10:04;100857.94;;;17.95;100.00
22605;BME280;11469;49.024;8.246;2023-05-08T10:12:30;100864.03;;;18.07;100.00
22605;BME280;11469;49.024;8.246;2023-05-08T10:14:56;100857.97;;;18.16;100.00
22605;BME280;11469;49.024;8.246;2023-05-08T10:19:57;100864.44;;;18.13;100.00
22605;BME280;11469;49.024;8.246;2023-05-08T10:22:24;100853.94;;;18.20;100.00
22605;BME280;11469;49.024;8.246;2023-05-08T10:24:54;100866.13;;;18.42;100.00
22605;BME280;11469;49.024;8.246;2023-05-08T10:27:29;100862.09;;;18.65;100.00
22605;BME280;11469;49.024;8.246;2023-05-08T10:30:00;100860.47;;;18.67;100.00
22605;BME280;11469;49.024;8.246;2023-05-08T10:32:27;100854.38;;;18.65;100.00
22605;BME280;11469;49.024;8.246;2023-05-08T10:34:58;100864.13;;;18.71;100.00
22605;BME280;11469;49.024;8.246;2023-05-08T10:37:23;100857.22;;;18.76;100.00
22605;BME280;11469;49.024;8.246;2023-05-08T10:39:50;100859.25;;;18.82;100.00
22605;BME280;11469;49.024;8.246;2023-05-08T10:42:17;100858.03;;;18.87;100.00
22605;BME280;11469;49.024;8.246;2023-05-08T10:44:43;100858.38;;;18.96;100.00
22605;BME280;11469;49.024;8.246;2023-05-08T10:53:19;100850.31;;;18.84;100.00
22605;BME280;11469;49.024;8.246;2023-05-08T10:55:37;100853.97;;;18.81;100.00
22605;BME280;11469;49.024;8.246;2023-05-08T10:58:34;100841.81;;;18.63;100.00
22605;BME280;11469;49.024;8.246;2023-05-08T11:03:32;100836.88;;;19.06;100.00
22605;BME280;11469;49.024;8.246;2023-05-08T11:06:02;100830.38;;;19.05;99.03
22605;BME280;11469;49.024;8.246;2023-05-08T11:08:28;100831.59;;;19.01;98.30
22605;BME280;11469;49.024;8.246;2023-05-08T11:13:49;100825.44;;;19.31;99.47
22605;BME280;11469;49.024;8.246;2023-05-08T11:16:16;100825.13;;;19.00;97.58
22605;BME280;11469;49.024;8.246;2023-05-08T11:19:17;100831.25;;;18.74;100.00
22605;BME280;11469;49.024;8.246;2023-05-08T11:27:13;100819.09;;;18.70;97.66
22605;BME280;11469;49.024;8.246;2023-05-08T11:29:38;100819.09;;;18.66;99.63
22605;BME280;11469;49.024;8.246;2023-05-08T11:32:04;100820.28;;;18.47;100.00
22605;BME280;11469;49.024;8.246;2023-05-08T11:37:21;100820.25;;;18.94;100.00
22605;BME280;11469;49.024;8.246;2023-05-08T11:39:49;100817.41;;;19.04;99.14
22605;BME280;11469;49.024;8.246;2023-05-08T11:45:04;100817.47;;;18.65;99.98
22605;BME280;11469;49.024;8.246;2023-05-08T11:47:41;100819.84;;;18.95;100.00
22605;BME280;11469;49.024;8.246;2023-05-08T11:50:08;100808.16;;;18.72;100.00
22605;BME280;11469;49.024;8.246;2023-05-08T11:52:34;100819.88;;;18.52;100.00
22605;BME280;11469;49.024;8.246;2023-05-08T11:55:06;100816.22;;;18.52;100.00
22605;BME280;11469;49.024;8.246;2023-05-08T11:57:32;100817.47;;;18.65;99.96
22605;BME280;11469;49.024;8.246;2023-05-08T12:00:08;100820.25;;;19.04;98.34
22605;BME280;11469;49.024;8.246;2023-05-08T12:02:42;100816.19;;;19.02;97.33
22605;BME280;11469;49.024;8.246;2023-05-08T12:05:10;100818.06;;;19.47;98.80
22605;BME280;11469;49.024;8.246;2023-05-08T12:07:42;100815.34;;;19.19;95.95
22605;BME280;11469;49.024;8.246;2023-05-08T12:10:09;100820.66;;;18.92;98.17
22605;BME280;11469;49.024;8.246;2023-05-08T12:12:35;100824.97;;;19.46;99.76
22605;BME280;11469;49.024;8.246;2023-05-08T12:15:05;100814.53;;;19.15;100.00
22605;BME280;11469;49.024;8.246;2023-05-08T12:17:31;100811.28;;;19.16;100.00
22605;BME280;11469;49.024;8.246;2023-05-08T12:20:08;100809.69;;;19.08;100.00
22605;BME280;11469;49.024;8.246;2023-05-08T12:22:33;100819.50;;;18.86;100.00
22605;BME280;11469;49.024;8.246;2023-05-08T12:24:59;100815.03;;;18.88;99.84
22605;BME280;11469;49.024;8.246;2023-05-08T12:27:25;100815.03;;;18.71;100.00
22605;BME280;11469;49.024;8.246;2023-05-08T12:29:51;100813.03;;;18.64;99.18
22605;BME280;11469;49.024;8.246;2023-05-08T12:32:16;100811.78;;;18.58;100.00
22605;BME280;11469;49.024;8.246;2023-05-08T12:34:41;100819.47;;;18.50;100.00
22605;BME280;11469;49.024;8.246;2023-05-08T12:37:07;100807.75;;;18.63;100.00
22605;BME280;11469;49.024;8.246;2023-05-08T12:39:35;100819.09;;;18.66;100.00
22605;BME280;11469;49.024;8.246;2023-05-08T12:42:01;100817.47;;;18.65;100.00
22605;BME280;11469;49.024;8.246;2023-05-08T12:44:28;100813.38;;;18.45;100.00
22605;BME280;11469;49.024;8.246;2023-05-08T12:46:56;100816.63;;;18.54;100.00
22605;BME280;11469;49.024;8.246;2023-05-08T12:49:26;100803.69;;;18.60;100.00
22605;BME280;11469;49.024;8.246;2023-05-08T12:52:02;100815.41;;;18.58;100.00
22605;BME280;11469;49.024;8.246;2023-05-08T12:54:37;100808.97;;;18.69;99.40
22605;BME280;11469;49.024;8.246;2023-05-08T12:57:11;100807.72;;;18.48;100.00
22605;BME280;11469;49.024;8.246;2023-05-08T12:59:36;100809.34;;;18.81;100.00
22605;BME280;11469;49.024;8.246;2023-05-08T13:02:02;100810.97;;;18.57;100.00
22605;BME280;11469;49.024;8.246;2023-05-08T13:04:28;100808.94;;;18.54;100.00
22605;BME280;11469;49.024;8.246;2023-05-08T13:06:55;100811.78;;;18.54;100.00
22605;BME280;11469;49.024;8.246;2023-05-08T13:09:20;100808.13;;;18.54;98.71
22605;BME280;11469;49.024;8.246;2023-05-08T13:11:47;100814.22;;;18.74;99.31
22605;BME280;11469;49.024;8.246;2023-05-08T13:14:12;100813.00;;;18.78;99.39
22605;BME280;11469;49.024;8.246;2023-05-08T13:16:44;100817.88;;;18.78;99.67
22605;BME280;11469;49.024;8.246;2023-05-08T13:19:12;100811.31;;;18.99;97.28
22605;BME280;11469;49.024;8.246;2023-05-08T13:21:39;100812.94;;;19.07;97.17
22605;BME280;11469;49.024;8.246;2023-05-08T13:24:05;100808.41;;;19.23;98.11
22605;BME280;11469;49.024;8.246;2023-05-08T13:26:31;100801.88;;;19.37;96.65
22605;BME280;11469;49.024;8.246;2023-05-08T13:28:56;100807.53;;;19.41;96.43
22605;BME280;11469;49.024;8.246;2023-05-08T13:31:22;100813.19;;;19.55;96.30
22605;BME280;11469;49.024;8.246;2023-05-08T13:33:47;100812.38;;;19.54;94.04
22605;BME280;11469;49.024;8.246;2023-05-08T13:36:12;100805.47;;;19.55;94.53
22605;BME280;11469;49.024;8.246;2023-05-08T13:38:38;100801.72;;;19.73;92.98
22605;BME280;11469;49.024;8.246;2023-05-08T13:41:03;100799.09;;;20.03;93.57
22605;BME280;11469;49.024;8.246;2023-05-08T13:43:29;100803.16;;;20.02;90.23